Ottumwa Regional Airport Ottumwa US
ICAO: KOTM
IATA: OTM
Category: Medium
Scheduled Services: No

Elevation: 845 ft
TransAlt. 18000 ft.

Airport Communications:
ASOS:124.175
CHICAGO CNTR:118.15
FORT DODGE RDO:122.4
CTAF/UNICOM:123

KOTM Zoom In..

If you have problems with the map follow the link
https://www.worldairports.se/pages/airport.php?
ICAO=KOTM

Runways:

(A) RW 04 length 4600 ft width 100 ft
---- / hdg 42

(B) RW 13 length 5885 ft width 150 ft
---- / hdg 132

(C) RW 22 length 4600 ft width 100 ft
---- / hdg 222

(D) RW 31 length 5885 ft width 150 ft
ILS 109.50 / hdg 312

Location; KOTM
Day. 12 / Time. 06.53 Zulu
* Altimeter: 30.24
* Temperature: -06° c. -21.2°f.
* Wind from: 120° Speed 09 kn.
Dewpoint: -08° c.
Visibility: 8 Statute Miles.
Clouds: Clear (automated report).

KOTM 120653Z AUTO 12009KT 8SM CLR M06/M08 A3024 RMK AO2 SLP252 T10611083


Wind From 120°
Speed 09 kn.

 
 
jpsmedia worldairports.se 2019   terms of use